createdAt,value
2018-10-21T00:01:27.644Z,21.43
2018-10-21T00:03:56.693Z,22.30
2018-10-21T00:06:25.390Z,23.10
2018-10-21T00:08:54.324Z,22.83
2018-10-21T00:14:15.676Z,22.45
2018-10-21T00:16:44.468Z,22.87
2018-10-21T00:19:13.264Z,21.73
2018-10-21T00:21:41.913Z,21.43
2018-10-21T00:24:11.438Z,20.03
2018-10-21T00:26:40.308Z,21.13
2018-10-21T00:29:08.769Z,21.30
2018-10-21T00:31:37.414Z,21.50
2018-10-21T00:34:12.467Z,19.00
2018-10-21T00:36:40.984Z,19.83
2018-10-21T00:39:11.856Z,20.03
2018-10-21T00:41:40.774Z,19.00
2018-10-21T00:44:09.760Z,19.27
2018-10-21T00:46:38.955Z,18.92
2018-10-21T00:49:08.110Z,18.60
2018-10-21T00:51:36.829Z,18.10
2018-10-21T00:54:10.404Z,17.63
2018-10-21T00:56:39.327Z,18.70
2018-10-21T00:59:08.573Z,19.10
2018-10-21T01:01:39.350Z,20.07
2018-10-21T01:04:08.278Z,18.20
2018-10-21T01:06:37.061Z,18.55
2018-10-21T01:09:10.322Z,18.67
2018-10-21T01:11:40.824Z,18.40
2018-10-21T01:14:10.082Z,18.80
2018-10-21T01:16:40.311Z,16.33
2018-10-21T01:19:09.242Z,15.10
2018-10-21T01:24:30.749Z,15.97
2018-10-21T01:26:59.662Z,15.73
2018-10-21T01:29:28.283Z,16.67
2018-10-21T01:31:57.039Z,17.73
2018-10-21T01:34:25.878Z,16.20
2018-10-21T01:36:54.784Z,17.35
2018-10-21T01:39:39.894Z,17.13
2018-10-21T01:42:08.939Z,18.03
2018-10-21T01:44:37.695Z,19.27
2018-10-21T01:47:06.234Z,17.55
2018-10-21T01:49:34.722Z,17.80
2018-10-21T01:52:03.361Z,18.13
2018-10-21T01:54:32.024Z,18.30
2018-10-21T01:57:00.651Z,17.63
2018-10-21T01:59:29.501Z,17.40
2018-10-21T02:01:58.157Z,18.07
2018-10-21T02:04:26.905Z,18.50
2018-10-21T02:06:55.497Z,16.43
2018-10-21T02:09:25.054Z,17.33
2018-10-21T02:11:54.291Z,17.07
2018-10-21T02:14:23.675Z,16.77
2018-10-21T02:16:52.791Z,17.70
2018-10-21T02:19:21.950Z,16.42
2018-10-21T02:21:50.964Z,16.67
2018-10-21T02:24:19.566Z,16.97
2018-10-21T02:26:48.408Z,17.90
2018-10-21T02:29:17.194Z,16.43
2018-10-21T02:31:46.083Z,17.47
2018-10-21T02:34:14.917Z,17.17
2018-10-21T02:36:43.459Z,16.60
2018-10-21T02:39:12.081Z,17.00
2018-10-21T02:41:54.379Z,16.67
2018-10-21T02:44:23.452Z,17.63
2018-10-21T02:46:54.159Z,18.27
2018-10-21T02:54:27.234Z,16.43
2018-10-21T02:56:56.054Z,17.00
2018-10-21T02:59:25.037Z,17.27
2018-10-21T03:01:53.650Z,16.67
2018-10-21T03:04:22.539Z,16.70
2018-10-21T03:06:51.493Z,15.60
2018-10-21T03:09:20.313Z,16.93
2018-10-21T03:11:48.927Z,16.67
2018-10-21T03:14:17.402Z,14.90
2018-10-21T03:16:46.136Z,15.93
2018-10-21T03:19:14.611Z,16.60
2018-10-21T03:21:43.311Z,15.32
2018-10-21T03:24:11.939Z,16.03
2018-10-21T03:26:40.558Z,16.33
2018-10-21T03:29:09.144Z,19.00
2018-10-21T03:31:37.798Z,16.80
2018-10-21T03:34:06.780Z,16.90
2018-10-21T03:36:35.257Z,17.67
2018-10-21T03:39:05.173Z,16.67
2018-10-21T03:41:33.771Z,16.30
2018-10-21T03:44:02.357Z,16.87
2018-10-21T03:46:30.847Z,18.10
2018-10-21T03:48:59.338Z,15.60
2018-10-21T03:51:28.005Z,16.90
2018-10-21T03:53:56.508Z,17.40
2018-10-21T03:56:25.268Z,17.10
2018-10-21T03:58:53.760Z,17.30
2018-10-21T04:01:22.437Z,17.23
2018-10-21T04:03:51.207Z,17.03
2018-10-21T04:06:20.024Z,17.07
2018-10-21T04:08:48.719Z,18.00
2018-10-21T04:11:17.491Z,16.27
2018-10-21T04:13:46.070Z,17.23
2018-10-21T04:16:14.838Z,18.07
2018-10-21T04:18:43.294Z,16.55
2018-10-21T04:21:11.894Z,18.10
2018-10-21T04:23:40.567Z,17.07
2018-10-21T04:31:43.641Z,16.07
2018-10-21T04:34:12.321Z,16.23
2018-10-21T04:36:40.752Z,16.07
2018-10-21T04:39:20.630Z,17.43
2018-10-21T04:41:49.645Z,16.97
2018-10-21T04:49:34.140Z,17.80
2018-10-21T04:52:02.815Z,15.87
2018-10-21T04:54:34.848Z,16.27
2018-10-21T04:57:05.295Z,16.60
2018-10-21T04:59:34.116Z,17.90
2018-10-21T05:02:02.800Z,18.23
2018-10-21T05:04:31.371Z,16.20
2018-10-21T05:07:00.163Z,15.80
2018-10-21T05:09:28.851Z,16.43
2018-10-21T05:11:57.631Z,17.52
2018-10-21T05:14:26.353Z,16.77
2018-10-21T05:16:55.014Z,17.20
2018-10-21T05:19:23.778Z,18.10
2018-10-21T05:21:52.692Z,16.03
2018-10-21T05:24:21.395Z,15.90
2018-10-21T05:26:50.128Z,16.25
2018-10-21T05:29:18.834Z,15.03
2018-10-21T05:31:47.598Z,15.13
2018-10-21T05:34:16.473Z,16.67
2018-10-21T05:36:45.406Z,15.40
2018-10-21T05:39:14.178Z,16.77
2018-10-21T05:41:42.841Z,16.03
2018-10-21T05:44:11.829Z,16.17
2018-10-21T05:46:47.187Z,16.73
2018-10-21T05:49:16.204Z,17.27
2018-10-21T05:51:46.476Z,17.40
2018-10-21T05:54:17.146Z,16.60
2018-10-21T05:56:47.472Z,17.30
2018-10-21T05:59:17.588Z,16.17
2018-10-21T06:01:48.279Z,17.77
2018-10-21T06:15:24.267Z,19.99
2018-10-21T06:18:30.853Z,17.53
2018-10-21T06:27:17.878Z,17.07
2018-10-21T06:29:53.359Z,18.87
2018-10-21T06:32:26.180Z,19.30
2018-10-21T06:34:55.733Z,19.03
2018-10-21T06:46:38.941Z,23.60
2018-10-21T07:23:00.689Z,21.90
2018-10-21T07:25:30.084Z,21.50
2018-10-21T07:28:01.568Z,19.80
2018-10-21T07:30:30.854Z,18.87
2018-10-21T07:33:00.642Z,23.90
2018-10-21T07:35:30.161Z,24.83
2018-10-21T07:37:59.218Z,25.27
2018-10-21T07:40:28.962Z,46.43
2018-10-21T07:42:58.662Z,54.10
2018-10-21T07:45:28.297Z,34.73
2018-10-21T07:47:57.795Z,39.00
2018-10-21T07:50:27.182Z,25.57
2018-10-21T07:52:56.506Z,23.03
2018-10-21T07:55:25.974Z,24.25
2018-10-21T07:57:56.517Z,25.45
2018-10-21T08:00:25.501Z,25.23
2018-10-21T08:02:54.304Z,24.00
2018-10-21T08:05:35.891Z,22.20
2018-10-21T08:08:12.946Z,22.77
2018-10-21T08:10:42.127Z,21.50
2018-10-21T08:13:12.507Z,21.87
2018-10-21T08:15:42.200Z,21.63
2018-10-21T08:18:12.542Z,23.57
2018-10-21T08:20:46.768Z,24.87
2018-10-21T08:23:16.986Z,24.27
2018-10-21T08:25:47.361Z,25.70
2018-10-21T08:28:16.224Z,25.37
2018-10-21T08:30:45.162Z,28.33
2018-10-21T08:33:14.380Z,29.40
2018-10-21T08:35:43.437Z,29.27
2018-10-21T08:38:14.097Z,28.10
2018-10-21T08:40:43.461Z,27.97
2018-10-21T08:43:12.349Z,28.27
2018-10-21T08:45:41.410Z,28.50
2018-10-21T08:48:10.245Z,28.07
2018-10-21T08:50:42.018Z,29.53
2018-10-21T08:53:11.549Z,28.47
2018-10-21T08:55:41.054Z,30.70
2018-10-21T08:58:11.155Z,30.00
2018-10-21T09:00:42.510Z,32.90
2018-10-21T09:03:12.426Z,31.77
2018-10-21T09:05:42.107Z,29.43
2018-10-21T09:08:17.214Z,31.77
2018-10-21T09:10:47.132Z,31.12
2018-10-21T09:13:16.747Z,30.97
2018-10-21T09:15:45.783Z,31.60
2018-10-21T09:18:15.195Z,31.00
2018-10-21T09:20:47.918Z,30.40
2018-10-21T09:23:28.855Z,31.17
2018-10-21T09:25:58.419Z,29.23
2018-10-21T09:28:27.770Z,30.20
2018-10-21T09:30:58.286Z,28.27
2018-10-21T09:33:27.090Z,31.10
2018-10-21T09:35:56.483Z,29.65
2018-10-21T09:38:25.721Z,29.57
2018-10-21T09:40:58.742Z,30.73
2018-10-21T09:46:23.018Z,30.70
2018-10-21T09:48:52.405Z,30.83
2018-10-21T09:51:21.275Z,31.63
2018-10-21T09:53:52.152Z,29.80
2018-10-21T09:56:21.292Z,30.00
2018-10-21T09:58:51.590Z,28.37
2018-10-21T10:01:26.166Z,29.97
2018-10-21T10:03:55.990Z,27.87
2018-10-21T10:06:25.491Z,26.57
2018-10-21T10:08:57.005Z,28.20
2018-10-21T10:11:32.466Z,26.20
2018-10-21T10:14:01.580Z,23.52
2018-10-21T10:16:30.711Z,23.63
2018-10-21T10:19:01.869Z,23.37
2018-10-21T10:21:31.177Z,24.33
2018-10-21T10:24:03.471Z,22.90
2018-10-21T10:26:32.585Z,22.57
2018-10-21T10:29:01.784Z,22.73
2018-10-21T10:31:31.140Z,22.98
2018-10-21T10:34:00.258Z,22.32
2018-10-21T10:36:29.398Z,22.50
2018-10-21T10:39:00.916Z,23.07
2018-10-21T10:41:30.025Z,24.00
2018-10-21T10:43:59.211Z,23.73
2018-10-21T10:46:28.316Z,23.93
2018-10-21T10:48:57.349Z,22.90
2018-10-21T10:51:26.570Z,23.35
2018-10-21T10:53:55.807Z,21.40
2018-10-21T10:56:24.364Z,22.00
2018-10-21T10:58:53.127Z,21.03
2018-10-21T11:17:04.337Z,21.07
2018-10-21T11:19:33.332Z,19.60
2018-10-21T11:22:04.064Z,19.50
2018-10-21T11:24:34.778Z,21.67
2018-10-21T11:27:08.067Z,20.40
2018-10-21T12:24:29.390Z,17.27
2018-10-21T12:30:02.007Z,16.83
2018-10-21T12:32:42.571Z,18.13
2018-10-21T12:35:43.281Z,18.27
2018-10-21T12:41:53.441Z,16.47
2018-10-21T12:44:24.120Z,14.45
2018-10-21T12:46:53.328Z,14.93
2018-10-21T12:49:22.683Z,12.60
2018-10-21T12:51:52.673Z,12.33
2018-10-21T12:54:21.575Z,13.20
2018-10-21T12:56:50.396Z,14.17
2018-10-21T12:59:19.699Z,14.00
2018-10-21T13:01:48.625Z,14.27
2018-10-21T13:04:17.899Z,11.50
2018-10-21T13:06:47.077Z,11.50
2018-10-21T13:09:27.461Z,12.75
2018-10-21T13:11:56.466Z,11.30
2018-10-21T13:14:25.782Z,9.43
2018-10-21T13:16:55.078Z,9.77
2018-10-21T13:19:24.979Z,9.37
2018-10-21T13:21:54.056Z,9.40
2018-10-21T13:24:23.202Z,8.80
2018-10-21T13:26:52.478Z,9.00
2018-10-21T13:29:21.272Z,8.20
2018-10-21T13:31:50.534Z,7.87
2018-10-21T13:34:19.910Z,9.00
2018-10-21T13:36:50.758Z,7.80
2018-10-21T13:39:20.419Z,8.03
2018-10-21T13:41:49.757Z,7.43
2018-10-21T13:44:19.133Z,6.20
2018-10-21T13:46:48.022Z,5.70
2018-10-21T13:49:16.808Z,5.00
2018-10-21T13:51:45.862Z,5.67
2018-10-21T13:54:14.864Z,5.40
2018-10-21T13:56:43.666Z,5.53
2018-10-21T13:59:13.151Z,4.73
2018-10-21T14:01:44.727Z,4.97
2018-10-21T14:04:13.704Z,4.47
2018-10-21T14:06:42.859Z,5.00
2018-10-21T14:09:13.447Z,4.67
2018-10-21T14:11:42.760Z,4.40
2018-10-21T14:14:12.553Z,3.50
2018-10-21T14:16:41.750Z,4.20
2018-10-21T14:19:17.080Z,3.65
2018-10-21T14:21:47.053Z,3.30
2018-10-21T14:24:16.376Z,3.83
2018-10-21T14:26:45.603Z,3.40
2018-10-21T14:29:25.007Z,3.35
2018-10-21T14:31:53.778Z,2.63
2018-10-21T14:34:22.800Z,3.30
2018-10-21T14:36:51.960Z,3.70
2018-10-21T14:39:20.691Z,3.00
2018-10-21T14:41:49.779Z,2.97
2018-10-21T14:44:19.109Z,3.10
2018-10-21T14:46:48.334Z,3.00
2018-10-21T14:49:17.241Z,2.90
2018-10-21T14:51:46.041Z,2.63
2018-10-21T14:54:15.507Z,2.73
2018-10-21T14:56:44.656Z,3.10
2018-10-21T14:59:13.597Z,3.23
2018-10-21T15:01:42.889Z,2.57
2018-10-21T15:04:11.896Z,2.37
2018-10-21T15:06:45.024Z,2.43
2018-10-21T15:09:14.883Z,2.70
2018-10-21T15:11:44.603Z,2.70
2018-10-21T15:14:13.626Z,2.37
2018-10-21T15:16:43.412Z,2.40
2018-10-21T15:19:18.281Z,2.30
2018-10-21T15:21:57.439Z,2.87
2018-10-21T15:24:26.621Z,2.20
2018-10-21T15:26:55.937Z,2.70
2018-10-21T15:29:25.135Z,2.73
2018-10-21T15:31:54.234Z,3.23
2018-10-21T15:34:23.038Z,2.30
2018-10-21T15:36:51.866Z,3.00
2018-10-21T15:39:20.574Z,9.18
2018-10-21T15:41:54.122Z,3.83
2018-10-21T15:44:23.751Z,4.70
2018-10-21T15:46:52.766Z,2.97
2018-10-21T15:52:15.473Z,2.60
2018-10-21T15:54:44.647Z,3.70
2018-10-21T15:57:13.958Z,3.00
2018-10-21T15:59:43.139Z,3.50
2018-10-21T16:02:12.003Z,3.20
2018-10-21T16:04:42.584Z,3.03
2018-10-21T16:07:11.620Z,3.50
2018-10-21T16:09:40.859Z,4.97
2018-10-21T16:12:12.898Z,3.10
2018-10-21T16:14:42.422Z,2.97
2018-10-21T16:17:11.423Z,4.03
2018-10-21T16:19:40.574Z,3.07
2018-10-21T16:22:13.029Z,2.92
2018-10-21T16:24:42.345Z,3.02
2018-10-21T16:27:14.084Z,3.40
2018-10-21T16:29:43.760Z,3.63
2018-10-21T16:32:12.888Z,3.50
2018-10-21T16:34:41.595Z,3.47
2018-10-21T16:37:10.258Z,3.37
2018-10-21T16:39:39.096Z,3.03
2018-10-21T16:42:08.933Z,10.87
2018-10-21T16:44:38.562Z,6.00
2018-10-21T16:47:07.741Z,9.13
2018-10-21T16:49:37.058Z,7.80
2018-10-21T16:52:05.837Z,6.70
2018-10-21T16:54:34.648Z,6.95
2018-10-21T16:57:03.623Z,6.10
2018-10-21T16:59:32.477Z,6.57
2018-10-21T17:02:01.088Z,6.23
2018-10-21T17:04:29.514Z,7.83
2018-10-21T17:06:58.722Z,8.90
2018-10-21T17:09:27.936Z,9.63
2018-10-21T17:11:56.801Z,8.90
2018-10-21T17:14:25.589Z,10.60
2018-10-21T17:16:55.591Z,13.47
2018-10-21T17:19:24.617Z,11.60
2018-10-21T17:21:53.487Z,16.30
2018-10-21T17:24:22.235Z,14.20
2018-10-21T17:26:50.965Z,9.77
2018-10-21T17:29:19.709Z,9.07
2018-10-21T17:31:48.264Z,9.90
2018-10-21T17:34:17.149Z,6.10
2018-10-21T17:36:45.830Z,7.30
2018-10-21T17:39:15.608Z,11.43
2018-10-21T17:41:44.507Z,7.23
2018-10-21T17:44:13.735Z,5.70
2018-10-21T17:46:43.042Z,5.90
2018-10-21T17:49:11.657Z,8.97
2018-10-21T17:51:40.582Z,7.07
2018-10-21T17:54:09.263Z,6.53
2018-10-21T17:57:11.290Z,7.00
2018-10-21T17:59:40.211Z,6.67
2018-10-21T18:02:09.467Z,6.50
2018-10-21T18:04:38.628Z,7.77
2018-10-21T18:07:14.592Z,7.95
2018-10-21T18:09:43.562Z,12.50
2018-10-21T18:12:12.337Z,12.43
2018-10-21T18:14:40.990Z,9.30
2018-10-21T18:17:09.921Z,10.85
2018-10-21T18:19:39.156Z,10.13
2018-10-21T18:22:08.190Z,11.70
2018-10-21T18:24:36.944Z,19.03
2018-10-21T18:27:05.664Z,13.32
2018-10-21T18:29:34.272Z,15.20
2018-10-21T18:32:02.884Z,21.33
2018-10-21T18:34:31.607Z,22.37
2018-10-21T18:37:00.597Z,21.80
2018-10-21T18:39:29.234Z,17.83
2018-10-21T18:41:57.926Z,14.70
2018-10-21T18:44:27.109Z,15.93
2018-10-21T18:46:56.133Z,15.90
2018-10-21T18:49:26.727Z,18.77
2018-10-21T18:51:55.794Z,16.73
2018-10-21T18:54:24.897Z,15.20
2018-10-21T18:56:54.039Z,14.20
2018-10-21T18:59:22.794Z,14.25
2018-10-21T19:01:51.542Z,10.57
2018-10-21T19:04:20.516Z,7.60
2018-10-21T19:06:49.140Z,10.43
2018-10-21T19:09:18.088Z,13.10
2018-10-21T19:11:47.002Z,14.70
2018-10-21T19:14:15.984Z,16.73
2018-10-21T19:16:44.899Z,14.20
2018-10-21T19:19:13.591Z,16.95
2018-10-21T19:21:42.450Z,14.38
2018-10-21T19:24:11.257Z,15.63
2018-10-21T19:26:39.913Z,4.43
2018-10-21T19:29:08.610Z,3.90
2018-10-21T19:31:37.699Z,10.10
2018-10-21T19:34:06.559Z,9.03
2018-10-21T19:36:35.498Z,12.30
2018-10-21T19:39:04.648Z,11.27
2018-10-21T19:41:33.402Z,12.53
2018-10-21T19:44:01.922Z,14.37
2018-10-21T19:46:31.297Z,14.73
2018-10-21T19:51:53.634Z,13.40
2018-10-21T19:54:22.488Z,14.50
2018-10-21T19:56:53.971Z,14.17
2018-10-21T19:59:22.834Z,13.20
2018-10-21T20:01:51.525Z,11.87
2018-10-21T20:04:20.367Z,13.57
2018-10-21T20:06:49.132Z,11.93
2018-10-21T20:09:17.893Z,12.57
2018-10-21T20:11:46.738Z,14.70
2018-10-21T20:14:15.497Z,13.23
2018-10-21T20:16:44.408Z,13.57
2018-10-21T20:19:13.106Z,13.73
2018-10-21T20:21:41.629Z,12.70
2018-10-21T20:24:10.195Z,13.83
2018-10-21T20:26:39.016Z,11.83
2018-10-21T20:29:07.692Z,13.10
2018-10-21T20:31:36.693Z,11.27
2018-10-21T20:34:05.616Z,10.07
2018-10-21T20:36:34.763Z,9.87
2018-10-21T20:39:04.333Z,8.73
2018-10-21T20:41:33.178Z,6.50
2018-10-21T20:44:02.165Z,6.90
2018-10-21T20:46:30.753Z,7.47
2018-10-21T20:48:59.613Z,6.50
2018-10-21T20:51:28.544Z,7.37
2018-10-21T20:53:56.937Z,8.27
2018-10-21T20:56:26.062Z,6.90
2018-10-21T20:58:55.138Z,6.85
2018-10-21T21:01:23.819Z,5.90
2018-10-21T21:03:52.612Z,5.80
2018-10-21T21:06:21.492Z,6.47
2018-10-21T21:08:50.568Z,5.97
2018-10-21T21:11:19.341Z,6.90
2018-10-21T21:13:48.114Z,7.40
2018-10-21T21:16:16.678Z,8.17
2018-10-21T21:18:45.225Z,7.37
2018-10-21T21:21:13.990Z,7.70
2018-10-21T21:23:42.878Z,7.53
2018-10-21T21:26:11.465Z,7.77
2018-10-21T21:28:40.334Z,7.63
2018-10-21T21:31:09.218Z,6.80
2018-10-21T21:33:38.310Z,6.90
2018-10-21T21:36:06.865Z,7.07
2018-10-21T21:38:35.504Z,6.37
2018-10-21T21:41:04.337Z,6.80
2018-10-21T21:43:33.477Z,7.30
2018-10-21T21:46:02.201Z,7.00
2018-10-21T21:48:31.068Z,7.07
2018-10-21T21:50:59.878Z,6.90
2018-10-21T21:53:28.693Z,6.40
2018-10-21T21:55:57.241Z,5.90
2018-10-21T21:58:26.023Z,6.90
2018-10-21T22:00:54.918Z,7.95
2018-10-21T22:03:23.955Z,7.53
2018-10-21T22:05:52.568Z,7.60
2018-10-21T22:08:21.674Z,6.67
2018-10-21T22:10:51.791Z,7.97
2018-10-21T22:13:20.375Z,7.70
2018-10-21T22:15:49.010Z,7.60
2018-10-21T22:18:17.635Z,7.80
2018-10-21T22:20:46.242Z,7.57
2018-10-21T22:23:14.989Z,6.77
2018-10-21T22:25:43.737Z,7.27
2018-10-21T22:28:12.545Z,7.00
2018-10-21T22:30:41.024Z,6.83
2018-10-21T22:33:09.770Z,6.62
2018-10-21T22:35:38.481Z,7.80
2018-10-21T22:38:07.305Z,7.33
2018-10-21T22:40:35.762Z,7.00
2018-10-21T22:43:04.565Z,6.43
2018-10-21T22:45:33.226Z,6.60
2018-10-21T22:48:01.942Z,7.10
2018-10-21T22:50:30.485Z,6.65
2018-10-21T22:52:59.153Z,7.50
2018-10-21T22:55:27.766Z,6.87
2018-10-21T22:57:56.741Z,7.50
2018-10-21T23:00:25.346Z,6.80
2018-10-21T23:02:54.466Z,7.20
2018-10-21T23:05:23.578Z,6.50
2018-10-21T23:07:52.259Z,6.63
2018-10-21T23:10:20.824Z,6.43
2018-10-21T23:12:49.413Z,5.33
2018-10-21T23:15:18.148Z,7.07
2018-10-21T23:17:46.666Z,6.93
2018-10-21T23:20:15.313Z,6.90
2018-10-21T23:22:43.991Z,6.10
2018-10-21T23:25:12.681Z,6.50
2018-10-21T23:27:41.294Z,5.92
2018-10-21T23:30:10.040Z,6.47
2018-10-21T23:32:38.856Z,5.60
2018-10-21T23:35:08.359Z,6.27
2018-10-21T23:37:37.382Z,6.20
2018-10-21T23:40:07.475Z,5.90
2018-10-21T23:42:35.942Z,5.63
2018-10-21T23:45:05.069Z,6.50
2018-10-21T23:47:33.974Z,6.30
2018-10-21T23:50:02.726Z,6.27
2018-10-21T23:52:31.237Z,6.13
2018-10-21T23:55:00.009Z,6.23
2018-10-21T23:57:28.586Z,5.53
2018-10-21T23:59:57.543Z,5.53
